Saint Marie, Montana
Current Conditions -  °F | °C
As of 12:53 AM on Thursday 29 Jan 2015 (Local Time) from KGGW Reporting Station
Haze Haze  
Wind Chill: 19°   Ceiling: Unl
Heat Index: 25°   Visibility: 6mi
Dew Point: 22°   Wind: 5mph
Humidity: 88%   Direction: 320°NW
Pressure: 30.41"   Gusts: NA
Location:  48.4°N, 106.55°W
Report Text: KGGW 290753Z AUTO 32004KT 6SM BR CLR M04/M06 A3041 RMK AO2 SLP329 T10391056
Loading
Personal Weather Stations






























Interactive Weather Map New forecast layout! Learn more

10-Day Weather Forecast

Advertisements
Track Severe Weather on mobile